createdAt,value
2019-04-05T00:00:41.656Z,52.50
2019-04-05T00:05:37.573Z,46.47
2019-04-05T00:10:33.632Z,41.27
2019-04-05T00:15:29.543Z,48.23
2019-04-05T00:20:25.460Z,46.87
2019-04-05T00:25:21.447Z,48.73
2019-04-05T00:30:17.361Z,49.93
2019-04-05T00:35:14.493Z,43.43
2019-04-05T00:40:10.919Z,51.73
2019-04-05T00:45:07.643Z,53.17
2019-04-05T00:50:05.560Z,45.17
2019-04-05T00:55:01.577Z,51.90
2019-04-05T00:59:57.500Z,45.50
2019-04-05T01:04:53.434Z,59.47
2019-04-05T01:09:49.447Z,47.90
2019-04-05T01:14:45.368Z,61.90
2019-04-05T01:19:43.611Z,62.53
2019-04-05T01:24:40.205Z,52.37
2019-04-05T01:29:36.188Z,40.27
2019-04-05T01:34:32.165Z,49.10
2019-04-05T01:39:28.122Z,61.20
2019-04-05T01:44:24.391Z,56.23
2019-04-05T01:49:20.314Z,59.07
2019-04-05T01:54:19.653Z,62.90
2019-04-05T01:59:15.642Z,60.03
2019-04-05T02:04:11.597Z,53.70
2019-04-05T02:09:09.918Z,52.23
2019-04-05T02:14:05.932Z,65.17
2019-04-05T02:19:01.995Z,64.30
2019-04-05T02:24:11.500Z,61.77
2019-04-05T02:29:07.615Z,61.20
2019-04-05T02:34:03.638Z,57.57
2019-04-05T02:38:59.641Z,61.87
2019-04-05T02:43:57.270Z,52.20
2019-04-05T02:48:53.792Z,62.73
2019-04-05T02:53:53.765Z,68.40
2019-04-05T02:58:50.196Z,61.87
2019-04-05T03:03:46.216Z,51.43
2019-04-05T03:08:42.473Z,71.47
2019-04-05T03:13:42.197Z,55.80
2019-04-05T03:18:42.019Z,68.77
2019-04-05T03:23:39.551Z,61.13
2019-04-05T03:28:36.872Z,72.33
2019-04-05T03:33:33.396Z,61.50
2019-04-05T03:38:29.603Z,67.00
2019-04-05T03:43:25.625Z,73.90
2019-04-05T03:48:21.546Z,66.40
2019-04-05T03:53:17.670Z,61.40
2019-04-05T03:58:13.587Z,61.33
2019-04-05T04:03:09.612Z,60.50
2019-04-05T04:08:05.576Z,62.70
2019-04-05T04:13:01.600Z,53.53
2019-04-05T04:17:57.552Z,53.27
2019-04-05T04:22:53.569Z,47.83
2019-04-05T04:27:49.496Z,46.30
2019-04-05T04:32:45.592Z,50.00
2019-04-05T04:37:41.796Z,43.00
2019-04-05T04:42:37.806Z,47.90
2019-04-05T04:47:34.226Z,44.87
2019-04-05T04:52:31.489Z,44.87
2019-04-05T04:57:27.825Z,47.83
2019-04-05T05:02:23.844Z,47.30
2019-04-05T05:07:19.862Z,42.10
2019-04-05T05:12:15.903Z,48.30
2019-04-05T05:17:12.476Z,47.03
2019-04-05T05:22:08.748Z,52.03
2019-04-05T05:27:05.168Z,43.33
2019-04-05T05:32:01.942Z,46.13
2019-04-05T05:36:57.883Z,43.87
2019-04-05T05:41:53.801Z,41.90
2019-04-05T05:46:49.732Z,42.67
2019-04-05T05:51:45.624Z,37.40
2019-04-05T05:56:41.576Z,35.90
2019-04-05T06:01:37.501Z,30.10
2019-04-05T06:06:33.521Z,31.17
2019-04-05T06:11:29.537Z,37.87
2019-04-05T06:16:25.459Z,34.10
2019-04-05T06:21:21.854Z,32.80
2019-04-05T06:26:17.833Z,34.07
2019-04-05T06:31:13.831Z,38.00
2019-04-05T06:36:09.749Z,34.57
2019-04-05T06:41:05.770Z,37.33
2019-04-05T06:46:02.105Z,40.20
2019-04-05T06:50:58.063Z,36.80
2019-04-05T06:55:53.992Z,42.47
2019-04-05T07:00:56.847Z,41.93
2019-04-05T07:05:47.832Z,39.80
2019-04-05T07:10:45.375Z,42.27
2019-04-05T07:15:41.375Z,33.83
2019-04-05T07:20:37.287Z,29.33
2019-04-05T07:25:33.258Z,42.43
2019-04-05T07:30:29.199Z,41.60
2019-04-05T07:35:33.411Z,33.67
2019-04-05T07:40:23.635Z,34.70
2019-04-05T07:45:19.743Z,35.40
2019-04-05T07:50:15.764Z,38.33
2019-04-05T07:55:12.263Z,29.00
2019-04-05T08:00:12.088Z,35.73
2019-04-05T08:05:08.123Z,32.00
2019-04-05T08:10:07.749Z,38.53
2019-04-05T08:15:04.670Z,34.40
2019-04-05T08:20:00.590Z,34.53
2019-04-05T08:24:56.515Z,34.77
2019-04-05T08:29:52.473Z,30.27
2019-04-05T08:34:48.494Z,26.23
2019-04-05T08:39:46.624Z,24.67
2019-04-05T08:44:44.582Z,25.77
2019-04-05T08:49:44.971Z,19.27
2019-04-05T08:54:41.704Z,21.53
2019-04-05T08:59:41.914Z,25.80
2019-04-05T09:04:38.852Z,29.33
2019-04-05T09:09:34.867Z,23.90
2019-04-05T09:14:32.714Z,30.83
2019-04-05T09:19:34.415Z,20.67
2019-04-05T09:24:31.267Z,23.77
2019-04-05T09:29:27.910Z,20.83
2019-04-05T09:34:25.292Z,23.10
2019-04-05T09:39:22.082Z,25.23
2019-04-05T09:44:18.134Z,26.30
2019-04-05T09:49:14.076Z,20.10
2019-04-05T09:54:21.374Z,21.63
2019-04-05T09:59:17.397Z,22.07
2019-04-05T10:04:13.419Z,25.67
2019-04-05T10:09:09.340Z,24.43
2019-04-05T10:14:05.261Z,23.80
2019-04-05T10:19:01.302Z,32.40
2019-04-05T10:23:57.222Z,28.83
2019-04-05T10:28:53.187Z,22.77
2019-04-05T10:33:49.131Z,17.50
2019-04-05T10:38:45.048Z,29.73
2019-04-05T10:43:40.964Z,23.47
2019-04-05T10:48:36.886Z,25.83
2019-04-05T10:53:32.800Z,24.80
2019-04-05T10:58:28.785Z,29.40
2019-04-05T11:03:24.707Z,27.10
2019-04-05T11:08:20.619Z,36.93
2019-04-05T11:13:16.598Z,30.27
2019-04-05T11:18:12.520Z,27.43
2019-04-05T11:23:08.439Z,23.20
2019-04-05T11:28:04.404Z,28.30
2019-04-05T11:33:00.463Z,24.53
2019-04-05T11:37:56.482Z,28.20
2019-04-05T11:42:52.807Z,26.40
2019-04-05T11:47:49.141Z,26.93
2019-04-05T11:52:45.059Z,34.57
2019-04-05T11:57:41.918Z,24.50
2019-04-05T12:02:39.912Z,22.77
2019-04-05T12:07:35.831Z,37.90
2019-04-05T12:12:31.750Z,26.97
2019-04-05T12:17:27.695Z,26.87
2019-04-05T12:22:23.633Z,30.07
2019-04-05T12:27:20.844Z,29.40
2019-04-05T12:32:18.947Z,29.30
2019-04-05T12:37:14.863Z,26.87
2019-04-05T12:42:12.153Z,23.67
2019-04-05T12:47:08.852Z,33.80
2019-04-05T12:52:05.104Z,30.33
2019-04-05T12:57:01.021Z,27.13
2019-04-05T13:01:59.493Z,50.60
2019-04-05T13:06:54.806Z,29.43
2019-04-05T13:11:50.803Z,29.40
2019-04-05T13:16:49.377Z,27.70
2019-04-05T13:21:44.624Z,28.97
2019-04-05T13:26:42.053Z,28.73
2019-04-05T13:31:38.466Z,23.97
2019-04-05T13:36:34.369Z,28.70
2019-04-05T13:41:32.265Z,24.93
2019-04-05T13:46:28.144Z,32.20
2019-04-05T13:51:28.271Z,29.23
2019-04-05T13:56:21.971Z,18.70
2019-04-05T14:01:18.510Z,29.97
2019-04-05T14:06:15.853Z,25.43
2019-04-05T14:11:11.822Z,29.07
2019-04-05T14:16:07.805Z,27.10
2019-04-05T14:21:03.774Z,29.70
2019-04-05T14:26:00.400Z,30.23
2019-04-05T14:30:56.371Z,25.10
2019-04-05T14:35:52.526Z,26.70
2019-04-05T14:40:50.186Z,23.10
2019-04-05T14:45:46.098Z,20.90
2019-04-05T14:50:42.276Z,24.23
2019-04-05T14:55:38.741Z,29.93
2019-04-05T15:00:34.790Z,32.13
2019-04-05T15:05:30.806Z,26.33
2019-04-05T15:10:26.831Z,27.40
2019-04-05T15:15:22.854Z,24.83
2019-04-05T15:20:19.173Z,24.03
2019-04-05T15:25:21.268Z,24.70
2019-04-05T15:30:15.413Z,24.23
2019-04-05T15:35:11.530Z,19.70
2019-04-05T15:40:08.950Z,22.30
2019-04-05T15:45:08.360Z,23.83
2019-04-05T15:50:07.341Z,28.10
2019-04-05T15:55:07.578Z,25.63
2019-04-05T16:00:09.233Z,22.60
2019-04-05T16:05:14.690Z,30.03
2019-04-05T16:10:22.151Z,25.67
2019-04-05T16:15:21.179Z,31.30
2019-04-05T16:20:18.698Z,28.50
2019-04-05T16:25:15.492Z,32.77
2019-04-05T16:35:28.265Z,26.67
2019-04-05T16:40:27.099Z,26.30
2019-04-05T16:45:28.178Z,23.30
2019-04-05T16:50:26.448Z,28.17
2019-04-05T16:55:27.608Z,32.10
2019-04-05T17:00:45.280Z,30.30
2019-04-05T17:05:42.633Z,32.63
2019-04-05T17:10:44.146Z,36.50
2019-04-05T17:20:51.377Z,39.83
2019-04-05T17:25:49.410Z,42.27
2019-04-05T17:30:46.487Z,48.37
2019-04-05T17:35:42.498Z,49.83
2019-04-05T17:40:38.461Z,51.97
2019-04-05T17:45:35.213Z,47.83
2019-04-05T17:50:32.431Z,52.93
2019-04-05T17:55:31.565Z,51.83
2019-04-05T18:00:27.489Z,60.87
2019-04-05T18:05:25.613Z,63.60
2019-04-05T18:10:21.638Z,62.07
2019-04-05T18:15:17.561Z,63.63
2019-04-05T18:20:13.591Z,80.93
2019-04-05T18:25:09.667Z,81.10
2019-04-05T18:30:06.592Z,69.00
2019-04-05T18:35:04.218Z,69.00
2019-04-05T18:40:00.140Z,81.23
2019-04-05T18:44:56.065Z,70.43
2019-04-05T18:50:02.401Z,96.87
2019-04-05T18:54:50.501Z,81.30
2019-04-05T18:59:46.481Z,91.80
2019-04-05T19:04:42.402Z,92.63
2019-04-05T19:09:38.320Z,85.37
2019-04-05T19:14:34.245Z,97.83
2019-04-05T19:19:30.275Z,93.33
2019-04-05T19:24:26.174Z,93.50
2019-04-05T19:29:22.387Z,93.93
2019-04-05T19:49:14.531Z,98.97
2019-04-05T19:54:10.601Z,105.83
2019-04-05T19:59:06.525Z,92.73
2019-04-05T20:04:02.482Z,107.30
2019-04-05T20:08:58.596Z,106.47
2019-04-05T20:13:54.525Z,107.17
2019-04-05T20:18:50.447Z,103.10
2019-04-05T20:23:47.661Z,126.07
2019-04-05T20:28:43.989Z,137.07
2019-04-05T20:33:39.937Z,122.40
2019-04-05T20:38:35.930Z,120.00
2019-04-05T20:43:31.865Z,133.40
2019-04-05T20:48:27.793Z,131.87
2019-04-05T20:53:23.779Z,126.60
2019-04-05T20:58:19.830Z,128.80
2019-04-05T21:03:16.177Z,136.00
2019-04-05T21:08:12.069Z,146.13
2019-04-05T21:13:07.994Z,108.20
2019-04-05T21:18:04.011Z,120.30
2019-04-05T21:22:59.935Z,119.27
2019-04-05T21:27:55.911Z,128.70
2019-04-05T21:32:51.891Z,135.13
2019-04-05T21:37:47.806Z,135.43
2019-04-05T21:42:43.758Z,136.03
2019-04-05T21:47:39.734Z,139.07
2019-04-05T21:52:35.651Z,151.63
2019-04-05T21:57:31.573Z,119.77
2019-04-05T22:02:27.590Z,157.10
2019-04-05T22:07:23.620Z,124.97
2019-04-05T22:12:20.884Z,124.63
2019-04-05T22:17:16.809Z,127.13
2019-04-05T22:22:12.761Z,139.33
2019-04-05T22:27:08.671Z,124.00
2019-04-05T22:32:04.581Z,147.37
2019-04-05T22:37:00.498Z,142.27
2019-04-05T22:41:56.411Z,142.50
2019-04-05T22:46:52.433Z,135.40
2019-04-05T22:51:48.349Z,131.10
2019-04-05T22:56:44.272Z,138.03
2019-04-05T23:01:40.212Z,125.63
2019-04-05T23:06:36.166Z,131.80
2019-04-05T23:11:32.129Z,128.57
2019-04-05T23:16:28.047Z,138.10
2019-04-05T23:21:23.967Z,152.97
2019-04-05T23:26:19.890Z,113.20
2019-04-05T23:31:15.799Z,119.23
2019-04-05T23:36:11.801Z,113.80
2019-04-05T23:41:07.749Z,130.00
2019-04-05T23:46:03.766Z,127.10
2019-04-05T23:50:59.696Z,132.43
2019-04-05T23:55:55.615Z,131.00
